sensor_id;sensor_type;location;lat;lon;timestamp;P1;durP1;ratioP1;P2;durP2;ratioP2
59530;SDS011;45349;48.692;8.186;2023-05-29T00:02:22;8.30;;;4.10;;
59530;SDS011;45349;48.692;8.186;2023-05-29T00:04:50;9.63;;;4.57;;
59530;SDS011;45349;48.692;8.186;2023-05-29T00:07:17;7.20;;;4.10;;
59530;SDS011;45349;48.692;8.186;2023-05-29T00:09:43;8.10;;;3.87;;
59530;SDS011;45349;48.692;8.186;2023-05-29T00:12:13;11.23;;;4.40;;
59530;SDS011;45349;48.692;8.186;2023-05-29T00:14:40;9.17;;;4.53;;
59530;SDS011;45349;48.692;8.186;2023-05-29T00:17:06;6.67;;;4.40;;
59530;SDS011;45349;48.692;8.186;2023-05-29T00:19:38;9.63;;;4.37;;
59530;SDS011;45349;48.692;8.186;2023-05-29T00:22:06;9.80;;;4.27;;
59530;SDS011;45349;48.692;8.186;2023-05-29T00:24:38;9.70;;;4.03;;
59530;SDS011;45349;48.692;8.186;2023-05-29T00:27:04;7.10;;;3.90;;
59530;SDS011;45349;48.692;8.186;2023-05-29T00:29:56;11.43;;;3.97;;
59530;SDS011;45349;48.692;8.186;2023-05-29T00:32:22;8.43;;;4.37;;
59530;SDS011;45349;48.692;8.186;2023-05-29T00:34:50;9.47;;;4.23;;
59530;SDS011;45349;48.692;8.186;2023-05-29T00:37:18;7.77;;;4.40;;
59530;SDS011;45349;48.692;8.186;2023-05-29T00:39:46;6.33;;;3.50;;
59530;SDS011;45349;48.692;8.186;2023-05-29T00:42:13;7.13;;;3.87;;
59530;SDS011;45349;48.692;8.186;2023-05-29T00:44:39;8.07;;;3.87;;
59530;SDS011;45349;48.692;8.186;2023-05-29T00:47:06;7.37;;;3.93;;
59530;SDS011;45349;48.692;8.186;2023-05-29T00:49:38;8.63;;;4.17;;
59530;SDS011;45349;48.692;8.186;2023-05-29T00:52:04;9.23;;;4.10;;
59530;SDS011;45349;48.692;8.186;2023-05-29T00:54:42;6.53;;;3.37;;
59530;SDS011;45349;48.692;8.186;2023-05-29T00:57:10;9.37;;;3.80;;
59530;SDS011;45349;48.692;8.186;2023-05-29T00:59:38;10.00;;;4.77;;
59530;SDS011;45349;48.692;8.186;2023-05-29T01:02:07;7.10;;;4.20;;
59530;SDS011;45349;48.692;8.186;2023-05-29T01:04:38;6.97;;;3.50;;
59530;SDS011;45349;48.692;8.186;2023-05-29T01:07:04;6.77;;;3.70;;
59530;SDS011;45349;48.692;8.186;2023-05-29T01:09:38;8.87;;;3.57;;
59530;SDS011;45349;48.692;8.186;2023-05-29T01:12:08;6.10;;;3.50;;
59530;SDS011;45349;48.692;8.186;2023-05-29T01:14:48;5.03;;;3.10;;
59530;SDS011;45349;48.692;8.186;2023-05-29T01:17:24;6.87;;;3.43;;
59530;SDS011;45349;48.692;8.186;2023-05-29T01:20:02;7.50;;;3.83;;
59530;SDS011;45349;48.692;8.186;2023-05-29T01:22:50;6.27;;;3.83;;
59530;SDS011;45349;48.692;8.186;2023-05-29T01:25:35;7.40;;;3.70;;
59530;SDS011;45349;48.692;8.186;2023-05-29T01:28:19;9.97;;;3.87;;
59530;SDS011;45349;48.692;8.186;2023-05-29T01:30:47;6.77;;;3.87;;
59530;SDS011;45349;48.692;8.186;2023-05-29T01:33:17;10.60;;;3.50;;
59530;SDS011;45349;48.692;8.186;2023-05-29T01:35:43;6.23;;;3.13;;
59530;SDS011;45349;48.692;8.186;2023-05-29T01:38:10;7.47;;;3.20;;
59530;SDS011;45349;48.692;8.186;2023-05-29T01:40:36;10.43;;;3.30;;
59530;SDS011;45349;48.692;8.186;2023-05-29T01:43:04;8.17;;;3.17;;
59530;SDS011;45349;48.692;8.186;2023-05-29T01:45:33;11.63;;;4.00;;
59530;SDS011;45349;48.692;8.186;2023-05-29T01:48:00;4.87;;;3.43;;
59530;SDS011;45349;48.692;8.186;2023-05-29T01:50:26;6.60;;;3.53;;
59530;SDS011;45349;48.692;8.186;2023-05-29T01:52:55;4.90;;;3.37;;
59530;SDS011;45349;48.692;8.186;2023-05-29T01:55:22;5.10;;;3.30;;
59530;SDS011;45349;48.692;8.186;2023-05-29T01:57:48;7.57;;;3.50;;
59530;SDS011;45349;48.692;8.186;2023-05-29T02:00:16;7.87;;;3.83;;
59530;SDS011;45349;48.692;8.186;2023-05-29T02:02:47;5.67;;;3.30;;
59530;SDS011;45349;48.692;8.186;2023-05-29T02:05:16;6.57;;;3.70;;
59530;SDS011;45349;48.692;8.186;2023-05-29T02:07:43;6.13;;;3.50;;
59530;SDS011;45349;48.692;8.186;2023-05-29T02:10:10;8.00;;;4.00;;
59530;SDS011;45349;48.692;8.186;2023-05-29T02:12:37;6.37;;;3.50;;
59530;SDS011;45349;48.692;8.186;2023-05-29T02:15:04;11.50;;;3.60;;
59530;SDS011;45349;48.692;8.186;2023-05-29T02:17:32;7.83;;;3.40;;
59530;SDS011;45349;48.692;8.186;2023-05-29T02:20:01;8.00;;;3.33;;
59530;SDS011;45349;48.692;8.186;2023-05-29T02:22:29;7.03;;;3.97;;
59530;SDS011;45349;48.692;8.186;2023-05-29T02:24:57;7.33;;;3.63;;
59530;SDS011;45349;48.692;8.186;2023-05-29T02:27:25;7.83;;;3.70;;
59530;SDS011;45349;48.692;8.186;2023-05-29T02:29:51;7.57;;;3.97;;
59530;SDS011;45349;48.692;8.186;2023-05-29T02:32:20;8.20;;;3.73;;
59530;SDS011;45349;48.692;8.186;2023-05-29T02:34:47;5.93;;;3.67;;
59530;SDS011;45349;48.692;8.186;2023-05-29T02:37:16;7.23;;;4.13;;
59530;SDS011;45349;48.692;8.186;2023-05-29T02:39:42;6.40;;;4.20;;
59530;SDS011;45349;48.692;8.186;2023-05-29T02:42:09;8.93;;;3.60;;
59530;SDS011;45349;48.692;8.186;2023-05-29T02:44:38;8.27;;;3.97;;
59530;SDS011;45349;48.692;8.186;2023-05-29T02:47:04;6.50;;;3.80;;
59530;SDS011;45349;48.692;8.186;2023-05-29T02:49:37;10.63;;;3.93;;
59530;SDS011;45349;48.692;8.186;2023-05-29T02:52:04;9.63;;;3.87;;
59530;SDS011;45349;48.692;8.186;2023-05-29T02:54:58;4.77;;;3.13;;
59530;SDS011;45349;48.692;8.186;2023-05-29T02:57:25;9.03;;;3.70;;
59530;SDS011;45349;48.692;8.186;2023-05-29T02:59:51;8.50;;;3.90;;
59530;SDS011;45349;48.692;8.186;2023-05-29T03:05:00;7.23;;;3.43;;
59530;SDS011;45349;48.692;8.186;2023-05-29T03:07:26;7.47;;;3.90;;
59530;SDS011;45349;48.692;8.186;2023-05-29T03:09:55;7.03;;;3.67;;
59530;SDS011;45349;48.692;8.186;2023-05-29T03:12:23;9.93;;;4.23;;
59530;SDS011;45349;48.692;8.186;2023-05-29T03:14:52;5.67;;;3.63;;
59530;SDS011;45349;48.692;8.186;2023-05-29T03:17:19;7.67;;;4.50;;
59530;SDS011;45349;48.692;8.186;2023-05-29T03:19:45;9.37;;;4.50;;
59530;SDS011;45349;48.692;8.186;2023-05-29T03:22:12;8.90;;;4.03;;
59530;SDS011;45349;48.692;8.186;2023-05-29T03:24:40;9.37;;;4.30;;
59530;SDS011;45349;48.692;8.186;2023-05-29T03:27:07;8.00;;;4.10;;
59530;SDS011;45349;48.692;8.186;2023-05-29T03:29:39;9.77;;;4.40;;
59530;SDS011;45349;48.692;8.186;2023-05-29T03:32:06;8.43;;;4.23;;
59530;SDS011;45349;48.692;8.186;2023-05-29T03:34:38;5.57;;;3.57;;
59530;SDS011;45349;48.692;8.186;2023-05-29T03:37:05;7.90;;;3.90;;
59530;SDS011;45349;48.692;8.186;2023-05-29T03:39:56;7.27;;;3.97;;
59530;SDS011;45349;48.692;8.186;2023-05-29T03:42:23;7.13;;;3.47;;
59530;SDS011;45349;48.692;8.186;2023-05-29T03:44:52;8.00;;;3.90;;
59530;SDS011;45349;48.692;8.186;2023-05-29T03:47:21;8.53;;;4.07;;
59530;SDS011;45349;48.692;8.186;2023-05-29T03:49:47;10.07;;;4.00;;
59530;SDS011;45349;48.692;8.186;2023-05-29T03:52:17;7.00;;;4.23;;
59530;SDS011;45349;48.692;8.186;2023-05-29T03:54:43;8.90;;;3.60;;
59530;SDS011;45349;48.692;8.186;2023-05-29T03:57:10;11.90;;;4.00;;
59530;SDS011;45349;48.692;8.186;2023-05-29T03:59:38;11.07;;;4.23;;
59530;SDS011;45349;48.692;8.186;2023-05-29T04:02:06;9.33;;;4.10;;
59530;SDS011;45349;48.692;8.186;2023-05-29T04:04:38;8.20;;;3.63;;
59530;SDS011;45349;48.692;8.186;2023-05-29T04:07:05;10.87;;;3.77;;
59530;SDS011;45349;48.692;8.186;2023-05-29T04:09:38;7.63;;;3.93;;
59530;SDS011;45349;48.692;8.186;2023-05-29T04:12:05;14.17;;;3.70;;
59530;SDS011;45349;48.692;8.186;2023-05-29T04:14:57;7.97;;;3.57;;
59530;SDS011;45349;48.692;8.186;2023-05-29T04:17:25;6.60;;;3.63;;
59530;SDS011;45349;48.692;8.186;2023-05-29T04:19:51;8.57;;;3.60;;
59530;SDS011;45349;48.692;8.186;2023-05-29T04:22:18;6.07;;;3.43;;
59530;SDS011;45349;48.692;8.186;2023-05-29T04:24:46;8.33;;;3.87;;
59530;SDS011;45349;48.692;8.186;2023-05-29T04:27:13;6.90;;;3.57;;
59530;SDS011;45349;48.692;8.186;2023-05-29T04:29:40;5.90;;;4.00;;
59530;SDS011;45349;48.692;8.186;2023-05-29T04:32:07;7.37;;;3.77;;
59530;SDS011;45349;48.692;8.186;2023-05-29T04:34:39;7.20;;;3.43;;
59530;SDS011;45349;48.692;8.186;2023-05-29T04:37:09;12.57;;;3.60;;
59530;SDS011;45349;48.692;8.186;2023-05-29T04:39:38;8.23;;;4.53;;
59530;SDS011;45349;48.692;8.186;2023-05-29T04:42:05;9.13;;;3.43;;
59530;SDS011;45349;48.692;8.186;2023-05-29T04:44:38;7.33;;;4.10;;
59530;SDS011;45349;48.692;8.186;2023-05-29T04:47:04;8.60;;;4.20;;
59530;SDS011;45349;48.692;8.186;2023-05-29T04:49:58;7.30;;;4.13;;
59530;SDS011;45349;48.692;8.186;2023-05-29T04:52:26;7.57;;;3.70;;
59530;SDS011;45349;48.692;8.186;2023-05-29T04:54:52;7.73;;;4.20;;
59530;SDS011;45349;48.692;8.186;2023-05-29T04:57:20;8.13;;;3.90;;
59530;SDS011;45349;48.692;8.186;2023-05-29T04:59:47;8.13;;;3.90;;
59530;SDS011;45349;48.692;8.186;2023-05-29T05:02:14;7.17;;;4.07;;
59530;SDS011;45349;48.692;8.186;2023-05-29T05:04:41;7.17;;;3.90;;
59530;SDS011;45349;48.692;8.186;2023-05-29T05:07:10;8.03;;;3.87;;
59530;SDS011;45349;48.692;8.186;2023-05-29T05:09:37;9.77;;;3.97;;
59530;SDS011;45349;48.692;8.186;2023-05-29T05:12:06;9.23;;;4.13;;
59530;SDS011;45349;48.692;8.186;2023-05-29T05:14:38;7.57;;;4.07;;
59530;SDS011;45349;48.692;8.186;2023-05-29T05:17:04;10.20;;;4.20;;
59530;SDS011;45349;48.692;8.186;2023-05-29T05:19:56;9.17;;;4.50;;
59530;SDS011;45349;48.692;8.186;2023-05-29T05:22:24;8.67;;;4.23;;
59530;SDS011;45349;48.692;8.186;2023-05-29T05:24:50;5.40;;;3.63;;
59530;SDS011;45349;48.692;8.186;2023-05-29T05:27:19;6.73;;;3.90;;
59530;SDS011;45349;48.692;8.186;2023-05-29T05:29:46;9.80;;;4.37;;
59530;SDS011;45349;48.692;8.186;2023-05-29T05:32:13;7.07;;;4.20;;
59530;SDS011;45349;48.692;8.186;2023-05-29T05:34:40;6.77;;;4.07;;
59530;SDS011;45349;48.692;8.186;2023-05-29T05:37:07;10.73;;;4.57;;
59530;SDS011;45349;48.692;8.186;2023-05-29T05:39:41;9.40;;;4.57;;
59530;SDS011;45349;48.692;8.186;2023-05-29T05:42:08;9.07;;;4.73;;
59530;SDS011;45349;48.692;8.186;2023-05-29T05:44:45;6.80;;;4.23;;
59530;SDS011;45349;48.692;8.186;2023-05-29T05:47:13;8.77;;;4.10;;
59530;SDS011;45349;48.692;8.186;2023-05-29T05:49:40;7.90;;;4.20;;
59530;SDS011;45349;48.692;8.186;2023-05-29T05:52:08;9.97;;;4.73;;
59530;SDS011;45349;48.692;8.186;2023-05-29T05:54:38;8.03;;;4.10;;
59530;SDS011;45349;48.692;8.186;2023-05-29T05:57:06;8.27;;;4.10;;
59530;SDS011;45349;48.692;8.186;2023-05-29T05:59:38;9.03;;;4.43;;
59530;SDS011;45349;48.692;8.186;2023-05-29T06:02:05;8.10;;;4.03;;
59530;SDS011;45349;48.692;8.186;2023-05-29T06:04:39;7.90;;;4.07;;
59530;SDS011;45349;48.692;8.186;2023-05-29T06:07:08;6.00;;;4.43;;
59530;SDS011;45349;48.692;8.186;2023-05-29T06:09:38;6.90;;;4.27;;
59530;SDS011;45349;48.692;8.186;2023-05-29T06:12:07;8.20;;;4.27;;
59530;SDS011;45349;48.692;8.186;2023-05-29T06:14:46;9.67;;;4.10;;
59530;SDS011;45349;48.692;8.186;2023-05-29T06:17:12;6.30;;;3.97;;
59530;SDS011;45349;48.692;8.186;2023-05-29T06:19:39;9.87;;;4.40;;
59530;SDS011;45349;48.692;8.186;2023-05-29T06:22:06;6.47;;;4.00;;
59530;SDS011;45349;48.692;8.186;2023-05-29T06:24:38;7.60;;;4.50;;
59530;SDS011;45349;48.692;8.186;2023-05-29T06:27:04;7.37;;;4.13;;
59530;SDS011;45349;48.692;8.186;2023-05-29T06:29:57;8.90;;;4.57;;
59530;SDS011;45349;48.692;8.186;2023-05-29T06:32:24;8.27;;;4.17;;
59530;SDS011;45349;48.692;8.186;2023-05-29T06:34:51;10.87;;;5.03;;
59530;SDS011;45349;48.692;8.186;2023-05-29T06:37:18;10.33;;;4.67;;
59530;SDS011;45349;48.692;8.186;2023-05-29T06:39:44;8.60;;;4.07;;
59530;SDS011;45349;48.692;8.186;2023-05-29T06:42:11;7.47;;;4.43;;
59530;SDS011;45349;48.692;8.186;2023-05-29T06:44:41;6.33;;;4.20;;
59530;SDS011;45349;48.692;8.186;2023-05-29T06:47:09;7.57;;;4.30;;
59530;SDS011;45349;48.692;8.186;2023-05-29T06:49:38;8.43;;;4.30;;
59530;SDS011;45349;48.692;8.186;2023-05-29T06:52:06;9.50;;;4.57;;
59530;SDS011;45349;48.692;8.186;2023-05-29T06:55:16;7.70;;;4.30;;
59530;SDS011;45349;48.692;8.186;2023-05-29T06:57:43;8.53;;;4.47;;
59530;SDS011;45349;48.692;8.186;2023-05-29T07:00:11;9.23;;;4.53;;
59530;SDS011;45349;48.692;8.186;2023-05-29T07:02:46;6.70;;;3.90;;
59530;SDS011;45349;48.692;8.186;2023-05-29T07:05:13;10.70;;;4.47;;
59530;SDS011;45349;48.692;8.186;2023-05-29T07:07:40;9.50;;;4.30;;
59530;SDS011;45349;48.692;8.186;2023-05-29T07:10:10;6.57;;;4.20;;
59530;SDS011;45349;48.692;8.186;2023-05-29T07:12:36;8.70;;;4.43;;
59530;SDS011;45349;48.692;8.186;2023-05-29T07:15:04;6.73;;;3.97;;
59530;SDS011;45349;48.692;8.186;2023-05-29T07:17:32;6.83;;;4.23;;
59530;SDS011;45349;48.692;8.186;2023-05-29T07:20:11;6.03;;;4.40;;
59530;SDS011;45349;48.692;8.186;2023-05-29T07:22:40;8.57;;;4.60;;
59530;SDS011;45349;48.692;8.186;2023-05-29T07:25:07;6.37;;;4.07;;
59530;SDS011;45349;48.692;8.186;2023-05-29T07:27:35;8.57;;;4.67;;
59530;SDS011;45349;48.692;8.186;2023-05-29T07:30:02;5.93;;;4.17;;
59530;SDS011;45349;48.692;8.186;2023-05-29T07:32:29;6.70;;;3.87;;
59530;SDS011;45349;48.692;8.186;2023-05-29T07:34:56;8.10;;;4.03;;
59530;SDS011;45349;48.692;8.186;2023-05-29T07:37:24;6.97;;;4.20;;
59530;SDS011;45349;48.692;8.186;2023-05-29T07:39:51;6.57;;;3.60;;
59530;SDS011;45349;48.692;8.186;2023-05-29T07:42:38;6.57;;;4.37;;
59530;SDS011;45349;48.692;8.186;2023-05-29T07:45:05;10.73;;;4.43;;
59530;SDS011;45349;48.692;8.186;2023-05-29T07:47:32;6.67;;;3.77;;
59530;SDS011;45349;48.692;8.186;2023-05-29T07:49:59;7.27;;;4.30;;
59530;SDS011;45349;48.692;8.186;2023-05-29T07:52:29;4.93;;;3.77;;
59530;SDS011;45349;48.692;8.186;2023-05-29T07:54:55;8.07;;;4.10;;
59530;SDS011;45349;48.692;8.186;2023-05-29T07:57:23;8.83;;;3.83;;
59530;SDS011;45349;48.692;8.186;2023-05-29T07:59:51;7.60;;;4.37;;
59530;SDS011;45349;48.692;8.186;2023-05-29T08:02:17;7.43;;;3.40;;
59530;SDS011;45349;48.692;8.186;2023-05-29T08:05:13;9.33;;;4.77;;
59530;SDS011;45349;48.692;8.186;2023-05-29T08:07:42;8.77;;;4.30;;
59530;SDS011;45349;48.692;8.186;2023-05-29T08:10:09;9.13;;;4.97;;
59530;SDS011;45349;48.692;8.186;2023-05-29T08:12:36;9.03;;;4.70;;
59530;SDS011;45349;48.692;8.186;2023-05-29T08:15:02;9.87;;;4.67;;
59530;SDS011;45349;48.692;8.186;2023-05-29T08:17:29;8.00;;;4.20;;
59530;SDS011;45349;48.692;8.186;2023-05-29T08:19:56;8.07;;;4.57;;
59530;SDS011;45349;48.692;8.186;2023-05-29T08:22:27;10.47;;;4.73;;
59530;SDS011;45349;48.692;8.186;2023-05-29T08:24:55;8.97;;;4.47;;
59530;SDS011;45349;48.692;8.186;2023-05-29T08:27:22;8.13;;;4.33;;
59530;SDS011;45349;48.692;8.186;2023-05-29T08:29:49;6.63;;;4.27;;
59530;SDS011;45349;48.692;8.186;2023-05-29T08:32:15;8.07;;;4.20;;
59530;SDS011;45349;48.692;8.186;2023-05-29T08:34:42;7.17;;;4.40;;
59530;SDS011;45349;48.692;8.186;2023-05-29T08:37:10;7.30;;;4.30;;
59530;SDS011;45349;48.692;8.186;2023-05-29T08:39:38;6.20;;;3.47;;
59530;SDS011;45349;48.692;8.186;2023-05-29T08:42:07;9.23;;;4.23;;
59530;SDS011;45349;48.692;8.186;2023-05-29T08:44:39;6.33;;;4.00;;
59530;SDS011;45349;48.692;8.186;2023-05-29T08:47:06;7.07;;;4.00;;
59530;SDS011;45349;48.692;8.186;2023-05-29T08:49:40;7.27;;;3.90;;
59530;SDS011;45349;48.692;8.186;2023-05-29T08:52:09;9.47;;;4.03;;
59530;SDS011;45349;48.692;8.186;2023-05-29T08:54:40;6.57;;;4.60;;
59530;SDS011;45349;48.692;8.186;2023-05-29T08:57:08;6.83;;;3.90;;
59530;SDS011;45349;48.692;8.186;2023-05-29T08:59:39;8.33;;;4.63;;
59530;SDS011;45349;48.692;8.186;2023-05-29T09:02:08;6.80;;;4.30;;
59530;SDS011;45349;48.692;8.186;2023-05-29T09:04:38;5.83;;;3.93;;
59530;SDS011;45349;48.692;8.186;2023-05-29T09:07:07;8.30;;;4.20;;
59530;SDS011;45349;48.692;8.186;2023-05-29T09:09:38;6.83;;;3.97;;
59530;SDS011;45349;48.692;8.186;2023-05-29T09:12:05;9.27;;;3.97;;
59530;SDS011;45349;48.692;8.186;2023-05-29T09:14:40;6.70;;;4.23;;
59530;SDS011;45349;48.692;8.186;2023-05-29T09:17:09;7.03;;;4.37;;
59530;SDS011;45349;48.692;8.186;2023-05-29T09:19:38;8.20;;;4.03;;
59530;SDS011;45349;48.692;8.186;2023-05-29T09:22:06;6.37;;;3.90;;
59530;SDS011;45349;48.692;8.186;2023-05-29T09:24:38;7.30;;;3.90;;
59530;SDS011;45349;48.692;8.186;2023-05-29T09:27:05;6.17;;;4.00;;
59530;SDS011;45349;48.692;8.186;2023-05-29T09:29:39;6.80;;;3.60;;
59530;SDS011;45349;48.692;8.186;2023-05-29T09:32:07;10.33;;;3.90;;
59530;SDS011;45349;48.692;8.186;2023-05-29T09:34:38;6.27;;;3.90;;
59530;SDS011;45349;48.692;8.186;2023-05-29T09:37:05;8.30;;;3.60;;
59530;SDS011;45349;48.692;8.186;2023-05-29T09:39:44;8.50;;;3.93;;
59530;SDS011;45349;48.692;8.186;2023-05-29T09:42:11;10.73;;;3.90;;
59530;SDS011;45349;48.692;8.186;2023-05-29T09:44:40;4.17;;;2.93;;
59530;SDS011;45349;48.692;8.186;2023-05-29T09:47:07;8.27;;;4.20;;
59530;SDS011;45349;48.692;8.186;2023-05-29T09:49:40;7.50;;;4.23;;
59530;SDS011;45349;48.692;8.186;2023-05-29T09:52:08;6.47;;;4.17;;
59530;SDS011;45349;48.692;8.186;2023-05-29T09:54:39;8.70;;;3.97;;
59530;SDS011;45349;48.692;8.186;2023-05-29T09:57:10;10.37;;;3.67;;
59530;SDS011;45349;48.692;8.186;2023-05-29T09:59:38;6.07;;;3.87;;
59530;SDS011;45349;48.692;8.186;2023-05-29T10:02:09;5.73;;;3.90;;
59530;SDS011;45349;48.692;8.186;2023-05-29T10:04:38;9.03;;;3.73;;
59530;SDS011;45349;48.692;8.186;2023-05-29T10:07:06;8.67;;;4.43;;
59530;SDS011;45349;48.692;8.186;2023-05-29T10:09:43;8.27;;;4.40;;
59530;SDS011;45349;48.692;8.186;2023-05-29T10:12:13;9.70;;;4.20;;
59530;SDS011;45349;48.692;8.186;2023-05-29T10:14:47;6.97;;;4.23;;
59530;SDS011;45349;48.692;8.186;2023-05-29T10:17:15;7.17;;;3.80;;
59530;SDS011;45349;48.692;8.186;2023-05-29T10:19:44;11.00;;;4.67;;
59530;SDS011;45349;48.692;8.186;2023-05-29T10:22:13;7.30;;;4.40;;
59530;SDS011;45349;48.692;8.186;2023-05-29T10:24:41;7.67;;;4.20;;
59530;SDS011;45349;48.692;8.186;2023-05-29T10:27:08;6.03;;;4.03;;
59530;SDS011;45349;48.692;8.186;2023-05-29T10:29:39;6.23;;;4.50;;
59530;SDS011;45349;48.692;8.186;2023-05-29T10:32:20;6.70;;;4.00;;
59530;SDS011;45349;48.692;8.186;2023-05-29T10:34:50;6.00;;;4.80;;
59530;SDS011;45349;48.692;8.186;2023-05-29T10:37:29;8.00;;;4.13;;
59530;SDS011;45349;48.692;8.186;2023-05-29T10:40:05;7.37;;;3.80;;
59530;SDS011;45349;48.692;8.186;2023-05-29T10:42:40;6.83;;;4.23;;
59530;SDS011;45349;48.692;8.186;2023-05-29T10:45:08;10.63;;;3.97;;
59530;SDS011;45349;48.692;8.186;2023-05-29T10:47:36;6.07;;;4.07;;
59530;SDS011;45349;48.692;8.186;2023-05-29T10:50:03;6.23;;;4.10;;
59530;SDS011;45349;48.692;8.186;2023-05-29T10:52:30;8.63;;;3.87;;
59530;SDS011;45349;48.692;8.186;2023-05-29T10:54:57;6.83;;;4.23;;
59530;SDS011;45349;48.692;8.186;2023-05-29T10:57:25;11.03;;;4.47;;
59530;SDS011;45349;48.692;8.186;2023-05-29T10:59:58;8.27;;;4.37;;
59530;SDS011;45349;48.692;8.186;2023-05-29T11:02:26;10.47;;;3.97;;
59530;SDS011;45349;48.692;8.186;2023-05-29T11:05:05;7.50;;;3.87;;
59530;SDS011;45349;48.692;8.186;2023-05-29T11:07:50;9.47;;;4.57;;
59530;SDS011;45349;48.692;8.186;2023-05-29T11:10:18;10.23;;;4.43;;
59530;SDS011;45349;48.692;8.186;2023-05-29T11:13:24;8.33;;;3.70;;
59530;SDS011;45349;48.692;8.186;2023-05-29T11:16:05;7.97;;;4.67;;
59530;SDS011;45349;48.692;8.186;2023-05-29T11:18:39;9.40;;;4.40;;
59530;SDS011;45349;48.692;8.186;2023-05-29T11:21:12;7.07;;;4.17;;
59530;SDS011;45349;48.692;8.186;2023-05-29T11:23:52;5.73;;;3.90;;
59530;SDS011;45349;48.692;8.186;2023-05-29T11:26:26;6.43;;;4.23;;
59530;SDS011;45349;48.692;8.186;2023-05-29T11:28:56;8.47;;;4.80;;
59530;SDS011;45349;48.692;8.186;2023-05-29T11:31:24;7.17;;;4.03;;
59530;SDS011;45349;48.692;8.186;2023-05-29T11:33:52;6.73;;;4.07;;
59530;SDS011;45349;48.692;8.186;2023-05-29T11:36:23;8.50;;;4.57;;
59530;SDS011;45349;48.692;8.186;2023-05-29T11:38:50;7.70;;;4.10;;
59530;SDS011;45349;48.692;8.186;2023-05-29T11:41:17;5.97;;;4.30;;
59530;SDS011;45349;48.692;8.186;2023-05-29T11:43:44;7.60;;;4.40;;
59530;SDS011;45349;48.692;8.186;2023-05-29T11:46:21;9.97;;;3.80;;
59530;SDS011;45349;48.692;8.186;2023-05-29T11:48:48;5.80;;;4.17;;
59530;SDS011;45349;48.692;8.186;2023-05-29T11:51:15;6.63;;;3.90;;
59530;SDS011;45349;48.692;8.186;2023-05-29T11:53:43;10.50;;;4.20;;
59530;SDS011;45349;48.692;8.186;2023-05-29T11:56:12;6.83;;;3.90;;
59530;SDS011;45349;48.692;8.186;2023-05-29T11:58:39;8.93;;;4.20;;
59530;SDS011;45349;48.692;8.186;2023-05-29T12:01:06;6.20;;;4.13;;
59530;SDS011;45349;48.692;8.186;2023-05-29T12:03:37;8.83;;;4.20;;
59530;SDS011;45349;48.692;8.186;2023-05-29T12:06:05;8.57;;;4.30;;
59530;SDS011;45349;48.692;8.186;2023-05-29T12:08:32;9.77;;;4.60;;
59530;SDS011;45349;48.692;8.186;2023-05-29T12:11:00;7.60;;;4.20;;
59530;SDS011;45349;48.692;8.186;2023-05-29T12:13:27;6.70;;;3.80;;
59530;SDS011;45349;48.692;8.186;2023-05-29T12:15:54;7.43;;;4.17;;
59530;SDS011;45349;48.692;8.186;2023-05-29T12:18:23;5.90;;;4.20;;
59530;SDS011;45349;48.692;8.186;2023-05-29T12:20:50;5.93;;;3.90;;
59530;SDS011;45349;48.692;8.186;2023-05-29T12:23:17;6.17;;;3.70;;
59530;SDS011;45349;48.692;8.186;2023-05-29T12:25:45;9.60;;;3.90;;
59530;SDS011;45349;48.692;8.186;2023-05-29T12:28:16;7.10;;;4.63;;
59530;SDS011;45349;48.692;8.186;2023-05-29T12:30:44;8.95;;;4.32;;
59530;SDS011;45349;48.692;8.186;2023-05-29T12:33:24;6.20;;;4.00;;
59530;SDS011;45349;48.692;8.186;2023-05-29T12:35:53;7.03;;;3.80;;
59530;SDS011;45349;48.692;8.186;2023-05-29T12:38:19;10.07;;;3.93;;
59530;SDS011;45349;48.692;8.186;2023-05-29T12:40:47;9.53;;;3.83;;
59530;SDS011;45349;48.692;8.186;2023-05-29T12:43:16;8.53;;;3.67;;
59530;SDS011;45349;48.692;8.186;2023-05-29T12:45:44;7.67;;;4.37;;
59530;SDS011;45349;48.692;8.186;2023-05-29T12:48:10;7.00;;;4.13;;
59530;SDS011;45349;48.692;8.186;2023-05-29T12:50:37;8.07;;;3.50;;
59530;SDS011;45349;48.692;8.186;2023-05-29T12:53:05;9.70;;;4.17;;
59530;SDS011;45349;48.692;8.186;2023-05-29T12:55:34;11.23;;;4.20;;
59530;SDS011;45349;48.692;8.186;2023-05-29T12:58:03;7.37;;;3.83;;
59530;SDS011;45349;48.692;8.186;2023-05-29T13:00:32;6.10;;;4.00;;
59530;SDS011;45349;48.692;8.186;2023-05-29T13:03:00;7.47;;;3.70;;
59530;SDS011;45349;48.692;8.186;2023-05-29T13:05:27;6.93;;;3.37;;
59530;SDS011;45349;48.692;8.186;2023-05-29T13:07:54;6.17;;;3.83;;
59530;SDS011;45349;48.692;8.186;2023-05-29T13:10:20;8.23;;;4.57;;
59530;SDS011;45349;48.692;8.186;2023-05-29T13:12:48;6.13;;;3.83;;
59530;SDS011;45349;48.692;8.186;2023-05-29T13:15:19;6.37;;;3.80;;
59530;SDS011;45349;48.692;8.186;2023-05-29T13:17:47;7.57;;;3.93;;
59530;SDS011;45349;48.692;8.186;2023-05-29T13:20:13;9.70;;;3.77;;
59530;SDS011;45349;48.692;8.186;2023-05-29T13:22:41;6.73;;;3.93;;
59530;SDS011;45349;48.692;8.186;2023-05-29T13:25:09;7.67;;;3.80;;
59530;SDS011;45349;48.692;8.186;2023-05-29T13:27:37;8.47;;;4.40;;
59530;SDS011;45349;48.692;8.186;2023-05-29T13:30:07;5.17;;;3.93;;
59530;SDS011;45349;48.692;8.186;2023-05-29T13:32:34;9.60;;;3.70;;
59530;SDS011;45349;48.692;8.186;2023-05-29T13:35:02;7.00;;;3.90;;
59530;SDS011;45349;48.692;8.186;2023-05-29T13:37:30;8.87;;;3.97;;
59530;SDS011;45349;48.692;8.186;2023-05-29T13:39:57;6.33;;;3.63;;
59530;SDS011;45349;48.692;8.186;2023-05-29T13:42:24;5.83;;;3.93;;
59530;SDS011;45349;48.692;8.186;2023-05-29T13:44:50;5.13;;;3.43;;
59530;SDS011;45349;48.692;8.186;2023-05-29T13:47:17;6.17;;;3.93;;
59530;SDS011;45349;48.692;8.186;2023-05-29T13:49:44;5.20;;;3.37;;
59530;SDS011;45349;48.692;8.186;2023-05-29T13:52:12;9.27;;;4.27;;
59530;SDS011;45349;48.692;8.186;2023-05-29T13:54:38;8.00;;;3.60;;
59530;SDS011;45349;48.692;8.186;2023-05-29T13:57:05;5.30;;;3.40;;
59530;SDS011;45349;48.692;8.186;2023-05-29T13:59:38;5.47;;;3.80;;
59530;SDS011;45349;48.692;8.186;2023-05-29T14:02:04;7.70;;;3.70;;
59530;SDS011;45349;48.692;8.186;2023-05-29T14:04:38;4.80;;;3.50;;
59530;SDS011;45349;48.692;8.186;2023-05-29T14:07:07;7.80;;;3.50;;
59530;SDS011;45349;48.692;8.186;2023-05-29T14:09:39;6.50;;;3.60;;
59530;SDS011;45349;48.692;8.186;2023-05-29T14:12:06;5.63;;;3.53;;
59530;SDS011;45349;48.692;8.186;2023-05-29T14:14:38;6.70;;;3.30;;
59530;SDS011;45349;48.692;8.186;2023-05-29T14:17:05;5.70;;;3.63;;
59530;SDS011;45349;48.692;8.186;2023-05-29T14:19:38;4.93;;;3.00;;
59530;SDS011;45349;48.692;8.186;2023-05-29T14:22:04;5.17;;;4.00;;
59530;SDS011;45349;48.692;8.186;2023-05-29T14:24:39;10.23;;;3.20;;
59530;SDS011;45349;48.692;8.186;2023-05-29T14:27:06;7.90;;;4.10;;
59530;SDS011;45349;48.692;8.186;2023-05-29T14:29:39;4.33;;;3.43;;
59530;SDS011;45349;48.692;8.186;2023-05-29T14:32:06;8.60;;;3.43;;
59530;SDS011;45349;48.692;8.186;2023-05-29T14:34:38;7.20;;;3.67;;
59530;SDS011;45349;48.692;8.186;2023-05-29T14:37:04;0.00;;;0.00;;
59530;SDS011;45349;48.692;8.186;2023-05-29T14:39:58;0.00;;;0.00;;
59530;SDS011;45349;48.692;8.186;2023-05-29T14:42:25;0.00;;;0.00;;
59530;SDS011;45349;48.692;8.186;2023-05-29T14:44:51;0.00;;;0.00;;
59530;SDS011;45349;48.692;8.186;2023-05-29T14:47:18;0.00;;;0.00;;
59530;SDS011;45349;48.692;8.186;2023-05-29T14:49:44;0.00;;;0.00;;
59530;SDS011;45349;48.692;8.186;2023-05-29T14:52:11;0.00;;;0.00;;
59530;SDS011;45349;48.692;8.186;2023-05-29T14:54:38;0.00;;;0.00;;
59530;SDS011;45349;48.692;8.186;2023-05-29T14:57:06;0.00;;;0.00;;
59530;SDS011;45349;48.692;8.186;2023-05-29T14:59:38;0.00;;;0.00;;
59530;SDS011;45349;48.692;8.186;2023-05-29T15:02:05;0.00;;;0.00;;
59530;SDS011;45349;48.692;8.186;2023-05-29T15:04:57;0.00;;;0.00;;